sensor_id;sensor_type;location;lat;lon;timestamp;P1;durP1;ratioP1;P2;durP2;ratioP2
19191;SDS011;9728;48.194;16.346;2024-02-16T00:03:40;8.00;;;4.68;;
19191;SDS011;9728;48.194;16.346;2024-02-16T00:08:44;6.65;;;3.88;;
19191;SDS011;9728;48.194;16.346;2024-02-16T00:13:48;4.85;;;3.70;;
19191;SDS011;9728;48.194;16.346;2024-02-16T00:18:52;5.03;;;4.13;;
19191;SDS011;9728;48.194;16.346;2024-02-16T00:23:56;8.57;;;4.75;;
19191;SDS011;9728;48.194;16.346;2024-02-16T00:29:00;7.43;;;4.47;;
19191;SDS011;9728;48.194;16.346;2024-02-16T00:34:03;5.03;;;3.47;;
19191;SDS011;9728;48.194;16.346;2024-02-16T00:39:08;6.03;;;4.47;;
19191;SDS011;9728;48.194;16.346;2024-02-16T00:44:11;7.28;;;4.68;;
19191;SDS011;9728;48.194;16.346;2024-02-16T00:49:15;8.40;;;4.40;;
19191;SDS011;9728;48.194;16.346;2024-02-16T01:07:45;6.75;;;3.95;;
19191;SDS011;9728;48.194;16.346;2024-02-16T01:12:48;6.63;;;4.10;;
19191;SDS011;9728;48.194;16.346;2024-02-16T01:17:53;6.20;;;4.30;;
19191;SDS011;9728;48.194;16.346;2024-02-16T01:22:59;5.15;;;4.07;;
19191;SDS011;9728;48.194;16.346;2024-02-16T01:28:02;7.05;;;4.30;;
19191;SDS011;9728;48.194;16.346;2024-02-16T01:33:06;5.90;;;4.45;;
19191;SDS011;9728;48.194;16.346;2024-02-16T01:38:11;6.05;;;4.40;;
19191;SDS011;9728;48.194;16.346;2024-02-16T01:43:18;7.30;;;4.50;;
19191;SDS011;9728;48.194;16.346;2024-02-16T01:48:22;7.10;;;3.80;;
19191;SDS011;9728;48.194;16.346;2024-02-16T01:53:27;7.03;;;4.57;;
19191;SDS011;9728;48.194;16.346;2024-02-16T01:58:30;6.05;;;4.20;;
19191;SDS011;9728;48.194;16.346;2024-02-16T02:03:34;6.13;;;4.00;;
19191;SDS011;9728;48.194;16.346;2024-02-16T02:08:39;6.57;;;4.65;;
19191;SDS011;9728;48.194;16.346;2024-02-16T02:13:42;7.05;;;3.47;;
19191;SDS011;9728;48.194;16.346;2024-02-16T02:18:45;5.57;;;4.28;;
19191;SDS011;9728;48.194;16.346;2024-02-16T02:23:50;5.43;;;4.07;;
19191;SDS011;9728;48.194;16.346;2024-02-16T02:28:54;5.55;;;3.88;;
19191;SDS011;9728;48.194;16.346;2024-02-16T02:33:58;5.88;;;4.32;;
19191;SDS011;9728;48.194;16.346;2024-02-16T02:39:03;5.87;;;4.23;;
19191;SDS011;9728;48.194;16.346;2024-02-16T02:44:07;5.57;;;4.50;;
19191;SDS011;9728;48.194;16.346;2024-02-16T02:49:11;5.78;;;3.88;;
19191;SDS011;9728;48.194;16.346;2024-02-16T02:54:16;4.50;;;3.60;;
19191;SDS011;9728;48.194;16.346;2024-02-16T02:59:19;5.75;;;3.90;;
19191;SDS011;9728;48.194;16.346;2024-02-16T03:04:22;6.18;;;3.83;;
19191;SDS011;9728;48.194;16.346;2024-02-16T03:09:27;7.00;;;4.45;;
19191;SDS011;9728;48.194;16.346;2024-02-16T03:14:31;4.90;;;3.50;;
19191;SDS011;9728;48.194;16.346;2024-02-16T03:19:35;5.63;;;3.90;;
19191;SDS011;9728;48.194;16.346;2024-02-16T03:24:40;4.72;;;3.42;;
19191;SDS011;9728;48.194;16.346;2024-02-16T03:29:44;6.07;;;4.43;;
19191;SDS011;9728;48.194;16.346;2024-02-16T03:34:47;5.80;;;3.95;;
19191;SDS011;9728;48.194;16.346;2024-02-16T03:39:52;6.00;;;3.93;;
19191;SDS011;9728;48.194;16.346;2024-02-16T03:44:56;5.33;;;3.63;;
19191;SDS011;9728;48.194;16.346;2024-02-16T03:49:59;6.10;;;3.97;;
19191;SDS011;9728;48.194;16.346;2024-02-16T03:55:05;5.97;;;3.80;;
19191;SDS011;9728;48.194;16.346;2024-02-16T04:00:10;5.43;;;3.90;;
19191;SDS011;9728;48.194;16.346;2024-02-16T04:05:15;6.80;;;4.07;;
19191;SDS011;9728;48.194;16.346;2024-02-16T04:10:20;5.68;;;4.22;;
19191;SDS011;9728;48.194;16.346;2024-02-16T04:15:23;6.93;;;4.60;;
19191;SDS011;9728;48.194;16.346;2024-02-16T04:20:27;6.10;;;3.80;;
19191;SDS011;9728;48.194;16.346;2024-02-16T04:25:32;4.70;;;3.57;;
19191;SDS011;9728;48.194;16.346;2024-02-16T04:30:35;6.57;;;3.97;;
19191;SDS011;9728;48.194;16.346;2024-02-16T04:35:39;5.30;;;3.73;;
19191;SDS011;9728;48.194;16.346;2024-02-16T04:40:43;4.77;;;3.67;;
19191;SDS011;9728;48.194;16.346;2024-02-16T04:45:47;6.83;;;4.03;;
19191;SDS011;9728;48.194;16.346;2024-02-16T04:50:50;6.00;;;4.27;;
19191;SDS011;9728;48.194;16.346;2024-02-16T04:55:55;6.75;;;4.07;;
19191;SDS011;9728;48.194;16.346;2024-02-16T05:00:59;6.63;;;3.93;;
19191;SDS011;9728;48.194;16.346;2024-02-16T05:06:02;4.87;;;3.27;;
19191;SDS011;9728;48.194;16.346;2024-02-16T05:11:07;6.35;;;3.75;;
19191;SDS011;9728;48.194;16.346;2024-02-16T05:16:11;5.33;;;3.90;;
19191;SDS011;9728;48.194;16.346;2024-02-16T05:21:14;4.57;;;3.97;;
19191;SDS011;9728;48.194;16.346;2024-02-16T05:26:20;5.63;;;3.60;;
19191;SDS011;9728;48.194;16.346;2024-02-16T05:31:23;6.57;;;4.00;;
19191;SDS011;9728;48.194;16.346;2024-02-16T05:36:27;6.67;;;3.73;;
19191;SDS011;9728;48.194;16.346;2024-02-16T05:41:38;7.13;;;3.83;;
19191;SDS011;9728;48.194;16.346;2024-02-16T05:46:43;4.60;;;3.37;;
19191;SDS011;9728;48.194;16.346;2024-02-16T05:51:47;6.07;;;3.97;;
19191;SDS011;9728;48.194;16.346;2024-02-16T05:57:20;6.80;;;3.43;;
19191;SDS011;9728;48.194;16.346;2024-02-16T06:02:25;6.50;;;3.47;;
19191;SDS011;9728;48.194;16.346;2024-02-16T06:07:28;4.97;;;3.23;;
19191;SDS011;9728;48.194;16.346;2024-02-16T06:12:35;6.40;;;3.53;;
19191;SDS011;9728;48.194;16.346;2024-02-16T06:17:39;6.65;;;4.20;;
19191;SDS011;9728;48.194;16.346;2024-02-16T06:22:43;5.37;;;4.00;;
19191;SDS011;9728;48.194;16.346;2024-02-16T06:27:47;4.90;;;3.30;;
19191;SDS011;9728;48.194;16.346;2024-02-16T06:32:51;5.90;;;3.27;;
19191;SDS011;9728;48.194;16.346;2024-02-16T06:37:56;4.77;;;3.50;;
19191;SDS011;9728;48.194;16.346;2024-02-16T06:43:01;4.33;;;3.27;;
19191;SDS011;9728;48.194;16.346;2024-02-16T06:48:07;5.37;;;3.27;;
19191;SDS011;9728;48.194;16.346;2024-02-16T06:53:10;6.05;;;3.78;;
19191;SDS011;9728;48.194;16.346;2024-02-16T06:58:15;4.77;;;3.40;;
19191;SDS011;9728;48.194;16.346;2024-02-16T07:03:18;4.80;;;3.10;;
19191;SDS011;9728;48.194;16.346;2024-02-16T07:08:22;6.80;;;3.17;;
19191;SDS011;9728;48.194;16.346;2024-02-16T07:13:28;4.75;;;3.15;;
19191;SDS011;9728;48.194;16.346;2024-02-16T07:18:32;4.57;;;3.00;;
19191;SDS011;9728;48.194;16.346;2024-02-16T07:23:36;5.50;;;3.53;;
19191;SDS011;9728;48.194;16.346;2024-02-16T07:28:41;4.63;;;3.40;;
19191;SDS011;9728;48.194;16.346;2024-02-16T07:33:44;4.72;;;3.08;;
19191;SDS011;9728;48.194;16.346;2024-02-16T07:38:48;4.23;;;2.70;;
19191;SDS011;9728;48.194;16.346;2024-02-16T07:43:53;4.87;;;2.77;;
19191;SDS011;9728;48.194;16.346;2024-02-16T07:48:56;4.60;;;3.07;;
19191;SDS011;9728;48.194;16.346;2024-02-16T07:54:00;3.73;;;2.60;;
19191;SDS011;9728;48.194;16.346;2024-02-16T07:59:06;3.70;;;2.85;;
19191;SDS011;9728;48.194;16.346;2024-02-16T08:04:09;4.40;;;3.00;;
19191;SDS011;9728;48.194;16.346;2024-02-16T08:09:13;4.93;;;3.23;;
19191;SDS011;9728;48.194;16.346;2024-02-16T08:14:18;4.32;;;2.88;;
19191;SDS011;9728;48.194;16.346;2024-02-16T08:19:22;4.43;;;3.00;;
19191;SDS011;9728;48.194;16.346;2024-02-16T08:24:26;6.90;;;3.17;;
19191;SDS011;9728;48.194;16.346;2024-02-16T08:29:32;4.20;;;2.85;;
19191;SDS011;9728;48.194;16.346;2024-02-16T08:34:36;4.28;;;2.85;;
19191;SDS011;9728;48.194;16.346;2024-02-16T08:39:40;4.05;;;2.60;;
19191;SDS011;9728;48.194;16.346;2024-02-16T08:44:45;3.92;;;2.53;;
19191;SDS011;9728;48.194;16.346;2024-02-16T08:49:50;3.42;;;2.08;;
19191;SDS011;9728;48.194;16.346;2024-02-16T08:54:53;3.22;;;2.22;;
19191;SDS011;9728;48.194;16.346;2024-02-16T08:59:58;2.97;;;1.95;;
19191;SDS011;9728;48.194;16.346;2024-02-16T09:05:02;2.25;;;1.75;;
19191;SDS011;9728;48.194;16.346;2024-02-16T09:10:06;3.97;;;1.92;;
19191;SDS011;9728;48.194;16.346;2024-02-16T09:15:12;4.38;;;2.08;;
19191;SDS011;9728;48.194;16.346;2024-02-16T09:20:15;3.22;;;1.80;;
19191;SDS011;9728;48.194;16.346;2024-02-16T09:25:24;5.10;;;2.35;;
19191;SDS011;9728;48.194;16.346;2024-02-16T09:30:29;2.97;;;1.85;;
19191;SDS011;9728;48.194;16.346;2024-02-16T09:35:33;2.38;;;1.73;;
19191;SDS011;9728;48.194;16.346;2024-02-16T09:40:37;1.95;;;1.75;;
19191;SDS011;9728;48.194;16.346;2024-02-16T09:45:41;2.25;;;1.88;;
19191;SDS011;9728;48.194;16.346;2024-02-16T09:50:45;2.92;;;1.52;;
19191;SDS011;9728;48.194;16.346;2024-02-16T09:55:49;2.00;;;1.67;;
19191;SDS011;9728;48.194;16.346;2024-02-16T10:00:54;3.58;;;1.60;;
19191;SDS011;9728;48.194;16.346;2024-02-16T10:06:05;2.35;;;1.75;;
19191;SDS011;9728;48.194;16.346;2024-02-16T10:11:10;1.77;;;1.27;;
19191;SDS011;9728;48.194;16.346;2024-02-16T10:16:17;2.35;;;1.40;;
19191;SDS011;9728;48.194;16.346;2024-02-16T10:21:24;1.77;;;1.42;;
19191;SDS011;9728;48.194;16.346;2024-02-16T10:26:28;1.63;;;1.10;;
19191;SDS011;9728;48.194;16.346;2024-02-16T10:31:34;1.17;;;1.08;;
19191;SDS011;9728;48.194;16.346;2024-02-16T10:36:38;5.65;;;1.48;;
19191;SDS011;9728;48.194;16.346;2024-02-16T10:41:43;2.65;;;1.30;;
19191;SDS011;9728;48.194;16.346;2024-02-16T10:46:49;3.58;;;2.30;;
19191;SDS011;9728;48.194;16.346;2024-02-16T10:51:54;3.40;;;1.52;;
19191;SDS011;9728;48.194;16.346;2024-02-16T10:56:59;2.47;;;1.48;;
19191;SDS011;9728;48.194;16.346;2024-02-16T11:02:06;3.13;;;1.40;;
19191;SDS011;9728;48.194;16.346;2024-02-16T11:07:14;4.28;;;1.30;;
19191;SDS011;9728;48.194;16.346;2024-02-16T11:12:19;2.67;;;1.60;;
19191;SDS011;9728;48.194;16.346;2024-02-16T11:17:25;3.08;;;1.33;;
19191;SDS011;9728;48.194;16.346;2024-02-16T11:22:29;2.13;;;1.30;;
19191;SDS011;9728;48.194;16.346;2024-02-16T11:27:32;2.20;;;1.27;;
19191;SDS011;9728;48.194;16.346;2024-02-16T11:32:39;1.95;;;1.45;;
19191;SDS011;9728;48.194;16.346;2024-02-16T11:37:45;2.13;;;1.58;;
19191;SDS011;9728;48.194;16.346;2024-02-16T11:42:49;2.45;;;1.48;;
19191;SDS011;9728;48.194;16.346;2024-02-16T11:48:06;2.33;;;1.25;;
19191;SDS011;9728;48.194;16.346;2024-02-16T11:53:14;1.45;;;1.08;;
19191;SDS011;9728;48.194;16.346;2024-02-16T11:58:21;1.67;;;1.10;;
19191;SDS011;9728;48.194;16.346;2024-02-16T12:03:27;2.13;;;1.20;;
19191;SDS011;9728;48.194;16.346;2024-02-16T12:08:31;2.20;;;1.10;;
19191;SDS011;9728;48.194;16.346;2024-02-16T12:13:36;1.15;;;0.95;;
19191;SDS011;9728;48.194;16.346;2024-02-16T12:18:40;1.38;;;1.00;;
19191;SDS011;9728;48.194;16.346;2024-02-16T12:23:44;1.58;;;0.90;;
19191;SDS011;9728;48.194;16.346;2024-02-16T12:28:48;1.33;;;0.90;;
19191;SDS011;9728;48.194;16.346;2024-02-16T12:33:53;2.00;;;1.17;;
19191;SDS011;9728;48.194;16.346;2024-02-16T12:38:57;1.20;;;0.90;;
19191;SDS011;9728;48.194;16.346;2024-02-16T12:44:00;2.53;;;1.30;;
19191;SDS011;9728;48.194;16.346;2024-02-16T12:49:05;3.60;;;1.48;;
19191;SDS011;9728;48.194;16.346;2024-02-16T12:54:09;4.35;;;1.75;;
19191;SDS011;9728;48.194;16.346;2024-02-16T12:59:16;1.50;;;1.10;;
19191;SDS011;9728;48.194;16.346;2024-02-16T13:04:21;1.40;;;1.05;;
19191;SDS011;9728;48.194;16.346;2024-02-16T13:09:24;1.20;;;1.10;;
19191;SDS011;9728;48.194;16.346;2024-02-16T13:14:30;0.98;;;0.88;;
19191;SDS011;9728;48.194;16.346;2024-02-16T13:19:34;1.27;;;0.82;;
19191;SDS011;9728;48.194;16.346;2024-02-16T13:24:38;1.20;;;0.80;;
19191;SDS011;9728;48.194;16.346;2024-02-16T13:29:42;1.02;;;0.90;;
19191;SDS011;9728;48.194;16.346;2024-02-16T13:34:46;2.67;;;1.23;;
19191;SDS011;9728;48.194;16.346;2024-02-16T13:39:50;2.05;;;1.38;;
19191;SDS011;9728;48.194;16.346;2024-02-16T13:44:53;1.65;;;1.17;;
19191;SDS011;9728;48.194;16.346;2024-02-16T13:49:58;2.92;;;1.10;;
19191;SDS011;9728;48.194;16.346;2024-02-16T13:55:02;1.42;;;1.25;;
19191;SDS011;9728;48.194;16.346;2024-02-16T14:00:08;2.13;;;1.50;;
19191;SDS011;9728;48.194;16.346;2024-02-16T14:05:16;1.92;;;1.30;;
19191;SDS011;9728;48.194;16.346;2024-02-16T14:10:20;1.27;;;1.10;;
19191;SDS011;9728;48.194;16.346;2024-02-16T14:15:23;1.15;;;1.00;;
19191;SDS011;9728;48.194;16.346;2024-02-16T14:20:33;1.67;;;1.20;;
19191;SDS011;9728;48.194;16.346;2024-02-16T14:25:37;1.42;;;0.98;;
19191;SDS011;9728;48.194;16.346;2024-02-16T14:30:41;1.25;;;1.15;;
19191;SDS011;9728;48.194;16.346;2024-02-16T14:35:46;1.27;;;1.00;;
19191;SDS011;9728;48.194;16.346;2024-02-16T14:40:50;1.05;;;0.95;;
19191;SDS011;9728;48.194;16.346;2024-02-16T14:45:53;1.90;;;1.15;;
19191;SDS011;9728;48.194;16.346;2024-02-16T14:51:01;2.47;;;1.58;;
19191;SDS011;9728;48.194;16.346;2024-02-16T14:56:06;2.25;;;1.13;;
19191;SDS011;9728;48.194;16.346;2024-02-16T15:01:10;1.05;;;0.90;;
19191;SDS011;9728;48.194;16.346;2024-02-16T15:06:16;1.58;;;1.13;;
19191;SDS011;9728;48.194;16.346;2024-02-16T15:11:19;1.25;;;1.15;;
19191;SDS011;9728;48.194;16.346;2024-02-16T15:16:23;1.83;;;1.10;;
19191;SDS011;9728;48.194;16.346;2024-02-16T15:21:28;1.40;;;1.27;;
19191;SDS011;9728;48.194;16.346;2024-02-16T15:26:31;1.52;;;1.25;;
19191;SDS011;9728;48.194;16.346;2024-02-16T15:31:35;2.13;;;1.52;;
19191;SDS011;9728;48.194;16.346;2024-02-16T15:36:39;2.92;;;2.00;;
19191;SDS011;9728;48.194;16.346;2024-02-16T15:41:43;2.08;;;1.55;;
19191;SDS011;9728;48.194;16.346;2024-02-16T15:46:48;2.60;;;1.52;;
19191;SDS011;9728;48.194;16.346;2024-02-16T15:51:53;1.80;;;1.27;;
19191;SDS011;9728;48.194;16.346;2024-02-16T15:56:57;1.60;;;1.30;;
19191;SDS011;9728;48.194;16.346;2024-02-16T16:02:02;1.42;;;1.33;;
19191;SDS011;9728;48.194;16.346;2024-02-16T16:07:07;2.38;;;1.40;;
19191;SDS011;9728;48.194;16.346;2024-02-16T16:12:13;2.55;;;1.60;;
19191;SDS011;9728;48.194;16.346;2024-02-16T16:17:16;2.10;;;1.60;;
19191;SDS011;9728;48.194;16.346;2024-02-16T16:22:21;2.20;;;1.80;;
19191;SDS011;9728;48.194;16.346;2024-02-16T16:27:25;2.10;;;1.70;;
19191;SDS011;9728;48.194;16.346;2024-02-16T16:32:29;3.42;;;1.85;;
19191;SDS011;9728;48.194;16.346;2024-02-16T16:37:34;2.85;;;1.77;;
19191;SDS011;9728;48.194;16.346;2024-02-16T16:42:37;3.10;;;2.05;;
19191;SDS011;9728;48.194;16.346;2024-02-16T16:47:41;2.92;;;1.95;;
19191;SDS011;9728;48.194;16.346;2024-02-16T16:52:46;2.65;;;2.00;;
19191;SDS011;9728;48.194;16.346;2024-02-16T16:57:49;2.65;;;2.03;;
19191;SDS011;9728;48.194;16.346;2024-02-16T17:02:53;4.28;;;2.80;;
19191;SDS011;9728;48.194;16.346;2024-02-16T17:07:58;4.28;;;2.20;;
19191;SDS011;9728;48.194;16.346;2024-02-16T17:13:01;3.10;;;2.40;;
19191;SDS011;9728;48.194;16.346;2024-02-16T17:18:05;4.05;;;2.60;;
19191;SDS011;9728;48.194;16.346;2024-02-16T17:23:10;4.43;;;3.13;;
19191;SDS011;9728;48.194;16.346;2024-02-16T17:28:13;4.80;;;3.20;;
19191;SDS011;9728;48.194;16.346;2024-02-16T17:33:18;3.97;;;2.67;;
19191;SDS011;9728;48.194;16.346;2024-02-16T17:38:23;4.90;;;3.08;;
19191;SDS011;9728;48.194;16.346;2024-02-16T17:43:26;4.38;;;2.78;;
19191;SDS011;9728;48.194;16.346;2024-02-16T17:48:30;3.97;;;2.83;;
19191;SDS011;9728;48.194;16.346;2024-02-16T17:53:36;4.40;;;2.55;;
19191;SDS011;9728;48.194;16.346;2024-02-16T17:58:40;3.22;;;2.78;;
19191;SDS011;9728;48.194;16.346;2024-02-16T18:03:43;4.22;;;2.63;;
19191;SDS011;9728;48.194;16.346;2024-02-16T18:08:49;4.88;;;2.70;;
19191;SDS011;9728;48.194;16.346;2024-02-16T18:13:52;3.58;;;2.38;;
19191;SDS011;9728;48.194;16.346;2024-02-16T18:18:56;3.95;;;2.70;;
19191;SDS011;9728;48.194;16.346;2024-02-16T18:24:02;3.42;;;2.65;;
19191;SDS011;9728;48.194;16.346;2024-02-16T18:29:06;4.20;;;2.88;;
19191;SDS011;9728;48.194;16.346;2024-02-16T18:34:10;3.10;;;2.53;;
19191;SDS011;9728;48.194;16.346;2024-02-16T18:39:15;5.97;;;3.60;;
19191;SDS011;9728;48.194;16.346;2024-02-16T18:44:19;7.68;;;4.18;;
19191;SDS011;9728;48.194;16.346;2024-02-16T18:49:22;5.57;;;3.67;;
19191;SDS011;9728;48.194;16.346;2024-02-16T18:54:27;4.25;;;3.40;;
19191;SDS011;9728;48.194;16.346;2024-02-16T18:59:31;5.15;;;3.50;;
19191;SDS011;9728;48.194;16.346;2024-02-16T19:04:34;5.78;;;3.00;;
19191;SDS011;9728;48.194;16.346;2024-02-16T19:09:40;3.30;;;2.67;;
19191;SDS011;9728;48.194;16.346;2024-02-16T19:14:43;5.32;;;3.55;;
19191;SDS011;9728;48.194;16.346;2024-02-16T19:19:46;5.43;;;3.70;;
19191;SDS011;9728;48.194;16.346;2024-02-16T19:24:51;4.85;;;3.03;;
19191;SDS011;9728;48.194;16.346;2024-02-16T19:29:55;4.85;;;3.20;;
19191;SDS011;9728;48.194;16.346;2024-02-16T19:34:59;5.30;;;3.00;;
19191;SDS011;9728;48.194;16.346;2024-02-16T19:40:06;6.32;;;3.47;;
19191;SDS011;9728;48.194;16.346;2024-02-16T19:45:11;5.88;;;3.35;;
19191;SDS011;9728;48.194;16.346;2024-02-16T19:50:23;5.70;;;4.05;;
19191;SDS011;9728;48.194;16.346;2024-02-16T19:55:28;4.70;;;3.63;;
19191;SDS011;9728;48.194;16.346;2024-02-16T20:00:31;5.45;;;3.65;;
19191;SDS011;9728;48.194;16.346;2024-02-16T20:05:36;4.95;;;3.72;;
19191;SDS011;9728;48.194;16.346;2024-02-16T20:10:41;4.80;;;3.08;;
19191;SDS011;9728;48.194;16.346;2024-02-16T20:15:44;4.85;;;3.05;;
19191;SDS011;9728;48.194;16.346;2024-02-16T20:20:48;5.70;;;3.10;;
19191;SDS011;9728;48.194;16.346;2024-02-16T20:25:53;4.45;;;2.92;;
19191;SDS011;9728;48.194;16.346;2024-02-16T20:30:56;4.88;;;3.13;;
19191;SDS011;9728;48.194;16.346;2024-02-16T20:36:06;4.95;;;3.28;;
19191;SDS011;9728;48.194;16.346;2024-02-16T20:41:11;4.55;;;3.13;;
19191;SDS011;9728;48.194;16.346;2024-02-16T20:46:14;4.05;;;2.97;;
19191;SDS011;9728;48.194;16.346;2024-02-16T20:51:18;4.55;;;3.30;;
19191;SDS011;9728;48.194;16.346;2024-02-16T20:56:23;4.68;;;3.17;;
19191;SDS011;9728;48.194;16.346;2024-02-16T21:01:26;4.60;;;3.28;;
19191;SDS011;9728;48.194;16.346;2024-02-16T21:06:29;4.32;;;3.30;;
19191;SDS011;9728;48.194;16.346;2024-02-16T21:11:34;3.80;;;3.03;;
19191;SDS011;9728;48.194;16.346;2024-02-16T21:16:38;5.18;;;3.40;;
19191;SDS011;9728;48.194;16.346;2024-02-16T21:21:44;5.82;;;4.07;;
19191;SDS011;9728;48.194;16.346;2024-02-16T21:26:53;5.82;;;4.00;;
19191;SDS011;9728;48.194;16.346;2024-02-16T21:31:56;6.25;;;4.22;;
19191;SDS011;9728;48.194;16.346;2024-02-16T21:37:00;4.22;;;2.90;;
19191;SDS011;9728;48.194;16.346;2024-02-16T21:42:07;5.72;;;3.58;;
19191;SDS011;9728;48.194;16.346;2024-02-16T21:47:12;5.20;;;3.50;;
19191;SDS011;9728;48.194;16.346;2024-02-16T21:52:15;5.45;;;3.65;;
19191;SDS011;9728;48.194;16.346;2024-02-16T21:57:20;5.25;;;3.63;;
19191;SDS011;9728;48.194;16.346;2024-02-16T22:02:24;5.07;;;3.67;;
19191;SDS011;9728;48.194;16.346;2024-02-16T22:07:27;5.85;;;3.65;;
19191;SDS011;9728;48.194;16.346;2024-02-16T22:12:33;9.18;;;4.88;;
19191;SDS011;9728;48.194;16.346;2024-02-16T22:17:36;5.28;;;3.75;;
19191;SDS011;9728;48.194;16.346;2024-02-16T22:22:39;5.35;;;3.67;;
19191;SDS011;9728;48.194;16.346;2024-02-16T22:27:44;6.13;;;3.83;;
19191;SDS011;9728;48.194;16.346;2024-02-16T22:32:48;6.20;;;3.90;;
19191;SDS011;9728;48.194;16.346;2024-02-16T22:37:51;6.18;;;3.65;;
19191;SDS011;9728;48.194;16.346;2024-02-16T22:42:57;6.18;;;4.43;;
19191;SDS011;9728;48.194;16.346;2024-02-16T22:48:00;6.05;;;4.40;;
19191;SDS011;9728;48.194;16.346;2024-02-16T22:53:05;4.60;;;3.55;;
19191;SDS011;9728;48.194;16.346;2024-02-16T22:58:10;4.50;;;3.33;;
19191;SDS011;9728;48.194;16.346;2024-02-16T23:03:14;4.65;;;3.30;;
19191;SDS011;9728;48.194;16.346;2024-02-16T23:08:18;5.35;;;3.47;;
19191;SDS011;9728;48.194;16.346;2024-02-16T23:13:23;4.95;;;3.60;;
19191;SDS011;9728;48.194;16.346;2024-02-16T23:18:27;6.28;;;3.30;;
19191;SDS011;9728;48.194;16.346;2024-02-16T23:23:31;6.75;;;3.40;;
19191;SDS011;9728;48.194;16.346;2024-02-16T23:28:35;7.53;;;4.20;;
19191;SDS011;9728;48.194;16.346;2024-02-16T23:33:41;5.95;;;3.80;;
19191;SDS011;9728;48.194;16.346;2024-02-16T23:38:44;6.22;;;3.65;;
19191;SDS011;9728;48.194;16.346;2024-02-16T23:43:49;7.22;;;4.25;;
19191;SDS011;9728;48.194;16.346;2024-02-16T23:48:56;7.18;;;3.92;;
19191;SDS011;9728;48.194;16.346;2024-02-16T23:53:59;5.68;;;3.60;;
19191;SDS011;9728;48.194;16.346;2024-02-16T23:59:04;5.88;;;3.47;;
